sensor_id;sensor_type;location;lat;lon;timestamp;pressure;altitude;pressure_sealevel;temperature;humidity
51417;BME280;50158;51.528;6.982;2022-07-30T00:02:47;68130;;;16.17;100
51417;BME280;50158;51.528;6.982;2022-07-30T00:07:51;68100;;;15.9;100
51417;BME280;50158;51.528;6.982;2022-07-30T00:11:42;68080;;;15.74;100
51417;BME280;50158;51.528;6.982;2022-07-30T00:16:47;68060;;;15.54;100
51417;BME280;50158;51.528;6.982;2022-07-30T00:21:51;68060;;;15.5;100
51417;BME280;50158;51.528;6.982;2022-07-30T00:26:56;68080;;;15.68;100
51417;BME280;50158;51.528;6.982;2022-07-30T00:32:01;68060;;;15.53;100
51417;BME280;50158;51.528;6.982;2022-07-30T00:35:51;68050;;;15.43;100
51417;BME280;50158;51.528;6.982;2022-07-30T00:40:56;68030;;;15.21;100
51417;BME280;50158;51.528;6.982;2022-07-30T00:45:45;68010;;;15.1;100
51417;BME280;50158;51.528;6.982;2022-07-30T00:51:55;68000;;;14.96;100
51417;BME280;50158;51.528;6.982;2022-07-30T00:56:52;67980;;;14.79;100
51417;BME280;50158;51.528;6.982;2022-07-30T01:01:48;67960;;;14.64;100
51417;BME280;50158;51.528;6.982;2022-07-30T01:06:53;67950;;;14.55;100
51417;BME280;50158;51.528;6.982;2022-07-30T01:11:58;67950;;;14.47;100
51417;BME280;50158;51.528;6.982;2022-07-30T01:15:48;67940;;;14.41;100
51417;BME280;50158;51.528;6.982;2022-07-30T01:20:56;67940;;;14.37;100
51417;BME280;50158;51.528;6.982;2022-07-30T01:24:46;67940;;;14.39;100
51417;BME280;50158;51.528;6.982;2022-07-30T01:31:03;67920;;;14.2;100
51417;BME280;50158;51.528;6.982;2022-07-30T01:34:54;67910;;;14.1;100
51417;BME280;50158;51.528;6.982;2022-07-30T01:39:50;67890;;;13.98;100
51417;BME280;50158;51.528;6.982;2022-07-30T01:49:51;67880;;;13.8;100
51417;BME280;50158;51.528;6.982;2022-07-30T01:53:50;67870;;;13.77;100
51417;BME280;50158;51.528;6.982;2022-07-30T01:58:46;67860;;;13.7;100
51417;BME280;50158;51.528;6.982;2022-07-30T02:03:59;67870;;;13.83;100
51417;BME280;50158;51.528;6.982;2022-07-30T02:07:44;67890;;;13.93;100
51417;BME280;50158;51.528;6.982;2022-07-30T02:12:49;67900;;;14.01;100
51417;BME280;50158;51.528;6.982;2022-07-30T02:17:59;67900;;;14.04;100
51417;BME280;50158;51.528;6.982;2022-07-30T02:21:43;67890;;;13.97;100
51417;BME280;50158;51.528;6.982;2022-07-30T02:27:53;67890;;;13.95;100
51417;BME280;50158;51.528;6.982;2022-07-30T02:32:49;67890;;;13.92;100
51417;BME280;50158;51.528;6.982;2022-07-30T02:37:46;67880;;;13.83;100
51417;BME280;50158;51.528;6.982;2022-07-30T02:42:58;67870;;;13.73;100
51417;BME280;50158;51.528;6.982;2022-07-30T02:46:41;67860;;;13.65;100
51417;BME280;50158;51.528;6.982;2022-07-30T02:52:52;67850;;;13.58;100
51417;BME280;50158;51.528;6.982;2022-07-30T02:56:42;67850;;;13.55;100
51417;BME280;50158;51.528;6.982;2022-07-30T03:03:01;67830;;;13.43;100
51417;BME280;50158;51.528;6.982;2022-07-30T03:06:43;67860;;;13.69;100
51417;BME280;50158;51.528;6.982;2022-07-30T03:11:48;67830;;;13.42;100
51417;BME280;50158;51.528;6.982;2022-07-30T03:17:01;67820;;;13.33;100
51417;BME280;50158;51.528;6.982;2022-07-30T03:20:44;67830;;;13.41;100
51417;BME280;50158;51.528;6.982;2022-07-30T03:25:53;67820;;;13.35;100
51417;BME280;50158;51.528;6.982;2022-07-30T03:30:53;67810;;;13.23;100
51417;BME280;50158;51.528;6.982;2022-07-30T03:34:43;67810;;;13.2;100
51417;BME280;50158;51.528;6.982;2022-07-30T03:39:48;67810;;;13.19;100
51417;BME280;50158;51.528;6.982;2022-07-30T03:44:53;67810;;;13.2;100
51417;BME280;50158;51.528;6.982;2022-07-30T03:49:49;67810;;;13.19;100
51417;BME280;50158;51.528;6.982;2022-07-30T03:54:46;67800;;;13.14;100
51417;BME280;50158;51.528;6.982;2022-07-30T03:59:42;67800;;;13.11;100
51417;BME280;50158;51.528;6.982;2022-07-30T04:05:53;67820;;;13.29;100
51417;BME280;50158;51.528;6.982;2022-07-30T04:09:43;67820;;;13.34;100
51417;BME280;50158;51.528;6.982;2022-07-30T04:14:48;67820;;;13.3;100
51417;BME280;50158;51.528;6.982;2022-07-30T04:19:47;67830;;;13.36;100
51417;BME280;50158;51.528;6.982;2022-07-30T04:24:49;67840;;;13.47;100
51417;BME280;50158;51.528;6.982;2022-07-30T04:29:54;67880;;;13.83;100
51417;BME280;50158;51.528;6.982;2022-07-30T04:33:45;67910;;;14.14;100
51417;BME280;50158;51.528;6.982;2022-07-30T04:38:50;67940;;;14.42;100
51417;BME280;50158;51.528;6.982;2022-07-30T04:43:54;67990;;;14.9;100
51417;BME280;50158;51.528;6.982;2022-07-30T04:47:37;68010;;;15.02;100
51417;BME280;50158;51.528;6.982;2022-07-30T04:52:41;68020;;;15.18;100
51417;BME280;50158;51.528;6.982;2022-07-30T04:57:54;68040;;;15.29;100
51417;BME280;50158;51.528;6.982;2022-07-30T05:02:51;68060;;;15.52;100
51417;BME280;50158;51.528;6.982;2022-07-30T05:08:04;68080;;;15.74;100
51417;BME280;50158;51.528;6.982;2022-07-30T05:11:50;68070;;;15.64;100
51417;BME280;50158;51.528;6.982;2022-07-30T05:16:51;68090;;;15.78;100
51417;BME280;50158;51.528;6.982;2022-07-30T05:21:47;68110;;;16;100
51417;BME280;50158;51.528;6.982;2022-07-30T05:27:00;68090;;;15.77;100
51417;BME280;50158;51.528;6.982;2022-07-30T05:30:51;68090;;;15.84;100
51417;BME280;50158;51.528;6.982;2022-07-30T05:35:56;68090;;;15.84;100
51417;BME280;50158;51.528;6.982;2022-07-30T05:44:51;68090;;;15.84;100
51417;BME280;50158;51.528;6.982;2022-07-30T05:48:42;68090;;;15.83;100
51417;BME280;50158;51.528;6.982;2022-07-30T05:54:52;68110;;;15.96;100
51417;BME280;50158;51.528;6.982;2022-07-30T05:59:49;68110;;;16.02;100
51417;BME280;50158;51.528;6.982;2022-07-30T06:04:45;68120;;;16.06;100
51417;BME280;50158;51.528;6.982;2022-07-30T06:09:42;68150;;;16.32;100
51417;BME280;50158;51.528;6.982;2022-07-30T06:15:52;68120;;;16.07;100
51417;BME280;50158;51.528;6.982;2022-07-30T06:20:57;68130;;;16.2;100
51417;BME280;50158;51.528;6.982;2022-07-30T06:24:56;68120;;;16.12;100
51417;BME280;50158;51.528;6.982;2022-07-30T06:29:53;68120;;;16.12;100
51417;BME280;50158;51.528;6.982;2022-07-30T06:34:57;68120;;;16.09;100
51417;BME280;50158;51.528;6.982;2022-07-30T06:44:50;68140;;;16.21;100
51417;BME280;50158;51.528;6.982;2022-07-30T06:49:47;68150;;;16.31;100
51417;BME280;50158;51.528;6.982;2022-07-30T06:55:49;68170;;;16.5;100
51417;BME280;50158;51.528;6.982;2022-07-30T07:00:54;68170;;;16.5;100
51417;BME280;50158;51.528;6.982;2022-07-30T07:04:45;68210;;;16.9;100
51417;BME280;50158;51.528;6.982;2022-07-30T07:09:49;68200;;;16.83;100
51417;BME280;50158;51.528;6.982;2022-07-30T07:14:54;68240;;;17.21;100
51417;BME280;50158;51.528;6.982;2022-07-30T07:18:45;68280;;;17.58;100
51417;BME280;50158;51.528;6.982;2022-07-30T07:22:43;68290;;;17.62;100
51417;BME280;50158;51.528;6.982;2022-07-30T07:27:48;68330;;;18.02;100
51417;BME280;50158;51.528;6.982;2022-07-30T07:32:53;68340;;;18.14;100
51417;BME280;50158;51.528;6.982;2022-07-30T07:36:44;68330;;;18.03;100
51417;BME280;50158;51.528;6.982;2022-07-30T07:42:54;68330;;;18.01;100
51417;BME280;50158;51.528;6.982;2022-07-30T07:46:45;68370;;;18.42;100
51417;BME280;50158;51.528;6.982;2022-07-30T07:52:47;68330;;;18;100
51417;BME280;50158;51.528;6.982;2022-07-30T07:57:44;68320;;;17.94;100
51417;BME280;50158;51.528;6.982;2022-07-30T08:02:49;68340;;;18.11;100
51417;BME280;50158;51.528;6.982;2022-07-30T08:07:45;68360;;;18.34;100
51417;BME280;50158;51.528;6.982;2022-07-30T08:12:50;68390;;;18.53;100
51417;BME280;50158;51.528;6.982;2022-07-30T08:17:54;68400;;;18.62;100
51417;BME280;50158;51.528;6.982;2022-07-30T08:22:51;68440;;;19.01;100
51417;BME280;50158;51.528;6.982;2022-07-30T08:24:05;68430;;;18.94;100
51417;BME280;50158;51.528;6.982;2022-07-30T08:28:04;68440;;;18.99;100
51417;BME280;50158;51.528;6.982;2022-07-30T08:31:46;68460;;;19.23;100
51417;BME280;50158;51.528;6.982;2022-07-30T08:36:51;68500;;;19.56;100
51417;BME280;50158;51.528;6.982;2022-07-30T08:40:42;68490;;;19.46;100
51417;BME280;50158;51.528;6.982;2022-07-30T08:45:46;68510;;;19.68;100
51417;BME280;50158;51.528;6.982;2022-07-30T08:50:43;68510;;;19.7;100
51417;BME280;50158;51.528;6.982;2022-07-30T08:57:02;68560;;;20.18;99.08
51417;BME280;50158;51.528;6.982;2022-07-30T09:00:44;68600;;;20.5;95.86
51417;BME280;50158;51.528;6.982;2022-07-30T09:05:49;68610;;;20.58;94.73
51417;BME280;50158;51.528;6.982;2022-07-30T09:15:58;68630;;;20.79;92.82
51417;BME280;50158;51.528;6.982;2022-07-30T09:20:55;68640;;;20.91;90.81
51417;BME280;50158;51.528;6.982;2022-07-30T09:26:00;68660;;;21.06;89.59
51417;BME280;50158;51.528;6.982;2022-07-30T09:36:01;68750;;;21.9;83.85
51417;BME280;50158;51.528;6.982;2022-07-30T09:39:51;68800;;;22.31;80.29
51417;BME280;50158;51.528;6.982;2022-07-30T09:44:48;68830;;;22.58;81.59
51417;BME280;50158;51.528;6.982;2022-07-30T09:55:55;68890;;;23.17;74.07
51417;BME280;50158;51.528;6.982;2022-07-30T10:00:55;68880;;;23.11;71.09
51417;BME280;50158;51.528;6.982;2022-07-30T10:05:49;69310;;;27.04;61
51417;BME280;50158;51.528;6.982;2022-07-30T10:10:45;69330;;;27.17;57.24
51417;BME280;50158;51.528;6.982;2022-07-30T10:15:58;69370;;;27.6;56.37
51417;BME280;50158;51.528;6.982;2022-07-30T10:21:03;69390;;;27.74;53.37
51417;BME280;50158;51.528;6.982;2022-07-30T10:24:53;69250;;;26.49;59.32
51417;BME280;50158;51.528;6.982;2022-07-30T10:29:50;69470;;;28.46;52.61
51417;BME280;50158;51.528;6.982;2022-07-30T10:34:46;69340;;;27.3;48.95
51417;BME280;50158;51.528;6.982;2022-07-30T10:39:45;69360;;;27.43;49.14
51417;BME280;50158;51.528;6.982;2022-07-30T10:46:01;69250;;;26.44;52.46
51417;BME280;50158;51.528;6.982;2022-07-30T10:55:47;69440;;;28.15;43.57
51417;BME280;50158;51.528;6.982;2022-07-30T11:05:49;69070;;;24.78;54.17
51417;BME280;50158;51.528;6.982;2022-07-30T11:10:44;69280;;;26.7;48.97
51417;BME280;50158;51.528;6.982;2022-07-30T11:17:03;69240;;;26.32;46.07
51417;BME280;50158;51.528;6.982;2022-07-30T11:31:53;69400;;;27.79;40.73
51417;BME280;50158;51.528;6.982;2022-07-30T11:37:21;69500;;;28.75;40.19
51417;BME280;50158;51.528;6.982;2022-07-30T11:42:22;69510;;;28.84;38.64
51417;BME280;50158;51.528;6.982;2022-07-30T11:46:59;69480;;;28.59;40.17
51417;BME280;50158;51.528;6.982;2022-07-30T11:50:41;69400;;;27.81;40.44
51417;BME280;50158;51.528;6.982;2022-07-30T11:57:00;69420;;;27.97;38.69
51417;BME280;50158;51.528;6.982;2022-07-30T12:07:01;69430;;;28.08;38.77
51417;BME280;50158;51.528;6.982;2022-07-30T12:14:59;69530;;;29.02;33.45
51417;BME280;50158;51.528;6.982;2022-07-30T12:29:57;69420;;;27.97;36.59
51417;BME280;50158;51.528;6.982;2022-07-30T12:35:02;69360;;;27.45;38.64
51417;BME280;50158;51.528;6.982;2022-07-30T12:38:44;69530;;;29;38.06
51417;BME280;50158;51.528;6.982;2022-07-30T12:45:03;69650;;;30.07;35.8
51417;BME280;50158;51.528;6.982;2022-07-30T12:49:02;69510;;;28.81;37.01
51417;BME280;50158;51.528;6.982;2022-07-30T12:53:50;69520;;;28.91;37.27
51417;BME280;50158;51.528;6.982;2022-07-30T13:00:03;69360;;;27.42;39.85
51417;BME280;50158;51.528;6.982;2022-07-30T13:03:43;69520;;;28.9;38.85
51417;BME280;50158;51.528;6.982;2022-07-30T13:10:10;69560;;;29.26;36.92
51417;BME280;50158;51.528;6.982;2022-07-30T13:14:50;69550;;;29.19;35.56
51417;BME280;50158;51.528;6.982;2022-07-30T13:19:55;69370;;;27.55;38.56
51417;BME280;50158;51.528;6.982;2022-07-30T13:25:08;69350;;;27.35;38.53
51417;BME280;50158;51.528;6.982;2022-07-30T13:29:23;69530;;;29;40.85
51417;BME280;50158;51.528;6.982;2022-07-30T13:31:51;69570;;;29.34;35.67
51417;BME280;50158;51.528;6.982;2022-07-30T13:36:48;69570;;;29.37;36.28
51417;BME280;50158;51.528;6.982;2022-07-30T13:40:38;69600;;;29.67;34.58
51417;BME280;50158;51.528;6.982;2022-07-30T13:43:06;69590;;;29.55;35.28
51417;BME280;50158;51.528;6.982;2022-07-30T13:46:57;69670;;;30.26;35.22
51417;BME280;50158;51.528;6.982;2022-07-30T13:49:25;69680;;;30.33;34.92
51417;BME280;50158;51.528;6.982;2022-07-30T13:51:54;69690;;;30.48;34.61
51417;BME280;50158;51.528;6.982;2022-07-30T13:55:36;69820;;;31.65;34.94
51417;BME280;50158;51.528;6.982;2022-07-30T14:00:16;69900;;;32.4;31.97
51417;BME280;50158;51.528;6.982;2022-07-30T14:02:44;69850;;;31.94;34.45
51417;BME280;50158;51.528;6.982;2022-07-30T14:06:35;69900;;;32.34;32.93
51417;BME280;50158;51.528;6.982;2022-07-30T14:07:49;69830;;;31.76;31.29
51417;BME280;50158;51.528;6.982;2022-07-30T14:10:26;69820;;;31.62;31.52
51417;BME280;50158;51.528;6.982;2022-07-30T14:12:54;69650;;;30.11;32.95
51417;BME280;50158;51.528;6.982;2022-07-30T14:15:23;69670;;;30.3;33.64
51417;BME280;50158;51.528;6.982;2022-07-30T14:17:50;69950;;;32.84;33.18
51417;BME280;50158;51.528;6.982;2022-07-30T14:21:33;70050;;;33.74;31.14
51417;BME280;50158;51.528;6.982;2022-07-30T14:22:47;69960;;;32.95;28.45
51417;BME280;50158;51.528;6.982;2022-07-30T14:25:15;69860;;;32;29.56
51417;BME280;50158;51.528;6.982;2022-07-30T14:27:44;69690;;;30.49;32.44
51417;BME280;50158;51.528;6.982;2022-07-30T14:30:12;69700;;;30.53;33.25
51417;BME280;50158;51.528;6.982;2022-07-30T14:32:40;69810;;;31.58;32
51417;BME280;50158;51.528;6.982;2022-07-30T14:33:54;69690;;;30.45;32.83
51417;BME280;50158;51.528;6.982;2022-07-30T14:37:53;69850;;;31.92;31.42
51417;BME280;50158;51.528;6.982;2022-07-30T14:42:49;69800;;;31.47;31.81
51417;BME280;50158;51.528;6.982;2022-07-30T14:47:54;69800;;;31.42;31.82
51417;BME280;50158;51.528;6.982;2022-07-30T14:52:51;69640;;;29.99;34.32
51417;BME280;50158;51.528;6.982;2022-07-30T14:58:53;69710;;;30.64;33.47
51417;BME280;50158;51.528;6.982;2022-07-30T15:03:50;69640;;;30.01;34.52
51417;BME280;50158;51.528;6.982;2022-07-30T15:08:46;69780;;;31.28;32.14
51417;BME280;50158;51.528;6.982;2022-07-30T15:13:51;70010;;;33.39;32.07
51417;BME280;50158;51.528;6.982;2022-07-30T15:18:47;69900;;;32.36;32.23
51417;BME280;50158;51.528;6.982;2022-07-30T15:23:44;69740;;;30.92;33.39
51417;BME280;50158;51.528;6.982;2022-07-30T15:29:55;69650;;;30.11;35.22
51417;BME280;50158;51.528;6.982;2022-07-30T15:34:51;69660;;;30.17;35.44
51417;BME280;50158;51.528;6.982;2022-07-30T15:38:42;69740;;;30.87;35.08
51417;BME280;50158;51.528;6.982;2022-07-30T15:43:47;69760;;;31.1;34.93
51417;BME280;50158;51.528;6.982;2022-07-30T15:48:43;69780;;;31.27;33.37
51417;BME280;50158;51.528;6.982;2022-07-30T15:59:58;69840;;;31.81;32.61
51417;BME280;50158;51.528;6.982;2022-07-30T16:05:03;69680;;;30.41;33.15
51417;BME280;50158;51.528;6.982;2022-07-30T16:08:46;69550;;;29.15;37.58
51417;BME280;50158;51.528;6.982;2022-07-30T16:19:53;69260;;;26.49;41.24
51417;BME280;50158;51.528;6.982;2022-07-30T16:24:50;69270;;;26.63;42.07
51417;BME280;50158;51.528;6.982;2022-07-30T16:29:54;69230;;;26.25;42.92
51417;BME280;50158;51.528;6.982;2022-07-30T16:34:51;69470;;;28.44;39.1
51417;BME280;50158;51.528;6.982;2022-07-30T16:39:47;69650;;;30.11;35.85
51417;BME280;50158;51.528;6.982;2022-07-30T16:44:44;69750;;;31;33.99
51417;BME280;50158;51.528;6.982;2022-07-30T16:51:03;69430;;;28.06;38.89
51417;BME280;50158;51.528;6.982;2022-07-30T16:54:45;69310;;;26.98;42.16
51417;BME280;50158;51.528;6.982;2022-07-30T16:59:50;69300;;;26.84;43.32
51417;BME280;50158;51.528;6.982;2022-07-30T17:04:46;69360;;;27.46;43.26
51417;BME280;50158;51.528;6.982;2022-07-30T17:09:43;69370;;;27.54;42.41
51417;BME280;50158;51.528;6.982;2022-07-30T17:15:53;69300;;;26.83;44.53
51417;BME280;50158;51.528;6.982;2022-07-30T17:20:50;69250;;;26.41;46.58
51417;BME280;50158;51.528;6.982;2022-07-30T17:25:55;69240;;;26.38;47.24
51417;BME280;50158;51.528;6.982;2022-07-30T17:35:56;69170;;;25.68;49.17
51417;BME280;50158;51.528;6.982;2022-07-30T17:40:53;69150;;;25.5;50.29
51417;BME280;50158;51.528;6.982;2022-07-30T17:45:57;69150;;;25.48;50.65
51417;BME280;50158;51.528;6.982;2022-07-30T17:50:54;69160;;;25.63;50.95
51417;BME280;50158;51.528;6.982;2022-07-30T17:55:58;69120;;;25.26;52.91
51417;BME280;50158;51.528;6.982;2022-07-30T18:00:47;69120;;;25.28;52.91
51417;BME280;50158;51.528;6.982;2022-07-30T18:05:43;69110;;;25.1;53.41
51417;BME280;50158;51.528;6.982;2022-07-30T18:11:54;69100;;;25.09;54.35
51417;BME280;50158;51.528;6.982;2022-07-30T18:16:50;69100;;;25.01;54.63
51417;BME280;50158;51.528;6.982;2022-07-30T18:21:47;69100;;;25.02;54.66
51417;BME280;50158;51.528;6.982;2022-07-30T18:26:44;69060;;;24.64;56.44
51417;BME280;50158;51.528;6.982;2022-07-30T18:30:42;69040;;;24.46;56.92
51417;BME280;50158;51.528;6.982;2022-07-30T18:36:53;69010;;;24.22;58.45
51417;BME280;50158;51.528;6.982;2022-07-30T18:41:50;69020;;;24.32;59.02
51417;BME280;50158;51.528;6.982;2022-07-30T18:46:46;68980;;;23.99;61.41
51417;BME280;50158;51.528;6.982;2022-07-30T18:51:43;68970;;;23.87;61.23
51417;BME280;50158;51.528;6.982;2022-07-30T18:57:53;68970;;;23.91;62.24
51417;BME280;50158;51.528;6.982;2022-07-30T18:59:07;68960;;;23.8;62.36
51417;BME280;50158;51.528;6.982;2022-07-30T19:02:42;68950;;;23.64;62.53
51417;BME280;50158;51.528;6.982;2022-07-30T19:08:52;68930;;;23.51;62.73
51417;BME280;50158;51.528;6.982;2022-07-30T19:13:49;68930;;;23.47;63.42
51417;BME280;50158;51.528;6.982;2022-07-30T19:18:45;68910;;;23.34;63.83
51417;BME280;50158;51.528;6.982;2022-07-30T19:23:42;68920;;;23.36;63.74
51417;BME280;50158;51.528;6.982;2022-07-30T19:29:53;68910;;;23.31;64.8
51417;BME280;50158;51.528;6.982;2022-07-30T19:34:49;68930;;;23.53;64.4
51417;BME280;50158;51.528;6.982;2022-07-30T19:39:46;68890;;;23.1;67.59
51417;BME280;50158;51.528;6.982;2022-07-30T19:50:53;68860;;;22.83;69.62
51417;BME280;50158;51.528;6.982;2022-07-30T19:55:49;68850;;;22.79;69.7
51417;BME280;50158;51.528;6.982;2022-07-30T19:59:32;68860;;;22.86;69.03
51417;BME280;50158;51.528;6.982;2022-07-30T20:06:48;68860;;;22.88;70.53
51417;BME280;50158;51.528;6.982;2022-07-30T20:17:56;68820;;;22.47;75.45
51417;BME280;50158;51.528;6.982;2022-07-30T20:22:52;68800;;;22.28;76.57
51417;BME280;50158;51.528;6.982;2022-07-30T20:27:49;68780;;;22.16;77.79
51417;BME280;50158;51.528;6.982;2022-07-30T20:32:45;68760;;;21.92;78.52
51417;BME280;50158;51.528;6.982;2022-07-30T20:38:56;68740;;;21.79;81.73
51417;BME280;50158;51.528;6.982;2022-07-30T20:43:52;68730;;;21.68;81.79
51417;BME280;50158;51.528;6.982;2022-07-30T20:53:45;68720;;;21.59;83.26
51417;BME280;50158;51.528;6.982;2022-07-30T21:03:47;68710;;;21.44;85.21
51417;BME280;50158;51.528;6.982;2022-07-30T21:14:54;68700;;;21.34;83.84
51417;BME280;50158;51.528;6.982;2022-07-30T21:19:50;68690;;;21.28;81.3
51417;BME280;50158;51.528;6.982;2022-07-30T21:24:47;68680;;;21.24;80.33
51417;BME280;50158;51.528;6.982;2022-07-30T21:29:44;68690;;;21.31;78.78
51417;BME280;50158;51.528;6.982;2022-07-30T21:35:54;68690;;;21.28;77.97
51417;BME280;50158;51.528;6.982;2022-07-30T21:40:51;68680;;;21.24;78.64
51417;BME280;50158;51.528;6.982;2022-07-30T21:45:47;68680;;;21.23;79.31
51417;BME280;50158;51.528;6.982;2022-07-30T21:50:44;68680;;;21.16;77.28
51417;BME280;50158;51.528;6.982;2022-07-30T21:56:54;68680;;;21.18;77.17
51417;BME280;50158;51.528;6.982;2022-07-30T22:01:43;68670;;;21.13;77.88
51417;BME280;50158;51.528;6.982;2022-07-30T22:07:53;68670;;;21.1;76.92
51417;BME280;50158;51.528;6.982;2022-07-30T22:12:50;68670;;;21.09;77.75
51417;BME280;50158;51.528;6.982;2022-07-30T22:17:47;68660;;;21.03;77.83
51417;BME280;50158;51.528;6.982;2022-07-30T22:22:43;68660;;;21;77.48
51417;BME280;50158;51.528;6.982;2022-07-30T22:28:54;68670;;;21.06;77.11
51417;BME280;50158;51.528;6.982;2022-07-30T22:33:50;68660;;;21.01;79.13
51417;BME280;50158;51.528;6.982;2022-07-30T22:38:47;68650;;;20.96;78.7
51417;BME280;50158;51.528;6.982;2022-07-30T22:43:43;68650;;;20.94;79
51417;BME280;50158;51.528;6.982;2022-07-30T22:49:54;68670;;;21.1;79.07
51417;BME280;50158;51.528;6.982;2022-07-30T23:05:50;68660;;;21.04;75.76
51417;BME280;50158;51.528;6.982;2022-07-30T23:10:46;68640;;;20.87;76.84
51417;BME280;50158;51.528;6.982;2022-07-30T23:15:43;68650;;;20.89;76.62
51417;BME280;50158;51.528;6.982;2022-07-30T23:21:53;68650;;;20.88;76.7
51417;BME280;50158;51.528;6.982;2022-07-30T23:26:50;68640;;;20.81;76.75
51417;BME280;50158;51.528;6.982;2022-07-30T23:30:49;68620;;;20.69;77.3
51417;BME280;50158;51.528;6.982;2022-07-30T23:35:45;68640;;;20.86;78.75
51417;BME280;50158;51.528;6.982;2022-07-30T23:41:56;68630;;;20.7;80.13
51417;BME280;50158;51.528;6.982;2022-07-30T23:46:52;68610;;;20.53;80.2
51417;BME280;50158;51.528;6.982;2022-07-30T23:51:49;68610;;;20.54;79.41
51417;BME280;50158;51.528;6.982;2022-07-30T23:56:45;68600;;;20.51;79.4
